sensor_id;sensor_type;location;lat;lon;timestamp;temperature;humidity
12817;DHT22;6473;51.552;6.716;2023-06-14T00:01:41;19.30;1.00
12817;DHT22;6473;51.552;6.716;2023-06-14T00:04:56;19.30;1.00
12817;DHT22;6473;51.552;6.716;2023-06-14T00:07:39;19.20;1.00
12817;DHT22;6473;51.552;6.716;2023-06-14T00:10:32;19.10;1.00
12817;DHT22;6473;51.552;6.716;2023-06-14T00:16:21;19.00;1.00
12817;DHT22;6473;51.552;6.716;2023-06-14T00:19:06;19.00;1.00
12817;DHT22;6473;51.552;6.716;2023-06-14T00:22:14;18.90;1.00
12817;DHT22;6473;51.552;6.716;2023-06-14T00:25:38;18.90;1.00
12817;DHT22;6473;51.552;6.716;2023-06-14T00:28:15;18.90;1.00
12817;DHT22;6473;51.552;6.716;2023-06-14T00:33:48;18.70;1.00
12817;DHT22;6473;51.552;6.716;2023-06-14T00:40:16;18.60;1.00
12817;DHT22;6473;51.552;6.716;2023-06-14T00:44:07;18.50;1.00
12817;DHT22;6473;51.552;6.716;2023-06-14T00:46:58;18.40;1.00
12817;DHT22;6473;51.552;6.716;2023-06-14T00:53:30;18.30;1.00
12817;DHT22;6473;51.552;6.716;2023-06-14T00:58:54;18.20;1.00
12817;DHT22;6473;51.552;6.716;2023-06-14T01:04:10;18.00;1.00
12817;DHT22;6473;51.552;6.716;2023-06-14T01:06:44;18.10;1.00
12817;DHT22;6473;51.552;6.716;2023-06-14T01:09:20;18.00;1.00
12817;DHT22;6473;51.552;6.716;2023-06-14T01:11:53;18.10;1.00
12817;DHT22;6473;51.552;6.716;2023-06-14T01:14:21;18.00;1.00
12817;DHT22;6473;51.552;6.716;2023-06-14T01:16:50;18.00;1.00
12817;DHT22;6473;51.552;6.716;2023-06-14T01:19:22;17.90;1.00
12817;DHT22;6473;51.552;6.716;2023-06-14T01:21:51;17.90;1.00
12817;DHT22;6473;51.552;6.716;2023-06-14T01:24:19;17.90;1.00
12817;DHT22;6473;51.552;6.716;2023-06-14T01:26:53;17.90;1.00
12817;DHT22;6473;51.552;6.716;2023-06-14T01:29:22;17.80;1.00
12817;DHT22;6473;51.552;6.716;2023-06-14T01:31:53;17.80;1.00
12817;DHT22;6473;51.552;6.716;2023-06-14T01:34:20;17.80;1.00
12817;DHT22;6473;51.552;6.716;2023-06-14T01:36:52;17.80;1.00
12817;DHT22;6473;51.552;6.716;2023-06-14T01:39:23;17.80;1.00
12817;DHT22;6473;51.552;6.716;2023-06-14T01:41:51;17.70;1.00
12817;DHT22;6473;51.552;6.716;2023-06-14T01:44:19;17.70;1.00
12817;DHT22;6473;51.552;6.716;2023-06-14T01:46:47;17.60;1.00
12817;DHT22;6473;51.552;6.716;2023-06-14T01:49:14;17.50;1.00
12817;DHT22;6473;51.552;6.716;2023-06-14T01:51:41;17.60;1.00
12817;DHT22;6473;51.552;6.716;2023-06-14T01:54:08;17.50;1.00
12817;DHT22;6473;51.552;6.716;2023-06-14T01:56:36;17.50;1.00
12817;DHT22;6473;51.552;6.716;2023-06-14T01:59:04;17.50;1.00
12817;DHT22;6473;51.552;6.716;2023-06-14T02:01:32;17.40;1.00
12817;DHT22;6473;51.552;6.716;2023-06-14T02:04:01;17.40;1.00
12817;DHT22;6473;51.552;6.716;2023-06-14T02:06:28;17.40;1.00
12817;DHT22;6473;51.552;6.716;2023-06-14T02:08:55;17.30;1.00
12817;DHT22;6473;51.552;6.716;2023-06-14T02:11:22;17.30;1.00
12817;DHT22;6473;51.552;6.716;2023-06-14T02:13:51;17.30;1.00
12817;DHT22;6473;51.552;6.716;2023-06-14T02:16:18;17.30;1.00
12817;DHT22;6473;51.552;6.716;2023-06-14T02:18:45;17.20;1.00
12817;DHT22;6473;51.552;6.716;2023-06-14T02:21:12;17.20;1.00
12817;DHT22;6473;51.552;6.716;2023-06-14T02:23:38;17.20;1.00
12817;DHT22;6473;51.552;6.716;2023-06-14T02:26:05;17.20;1.00
12817;DHT22;6473;51.552;6.716;2023-06-14T02:28:34;17.20;1.00
12817;DHT22;6473;51.552;6.716;2023-06-14T02:31:02;17.10;1.00
12817;DHT22;6473;51.552;6.716;2023-06-14T02:33:29;17.10;1.00
12817;DHT22;6473;51.552;6.716;2023-06-14T02:35:56;17.00;1.00
12817;DHT22;6473;51.552;6.716;2023-06-14T02:38:23;17.00;1.00
12817;DHT22;6473;51.552;6.716;2023-06-14T02:40:49;17.00;1.00
12817;DHT22;6473;51.552;6.716;2023-06-14T02:43:16;16.90;1.00
12817;DHT22;6473;51.552;6.716;2023-06-14T02:45:43;16.80;1.00
12817;DHT22;6473;51.552;6.716;2023-06-14T02:48:11;16.80;1.00
12817;DHT22;6473;51.552;6.716;2023-06-14T02:50:40;16.80;1.00
12817;DHT22;6473;51.552;6.716;2023-06-14T02:53:07;16.80;1.00
12817;DHT22;6473;51.552;6.716;2023-06-14T02:55:35;16.80;1.00
12817;DHT22;6473;51.552;6.716;2023-06-14T02:58:05;16.80;1.00
12817;DHT22;6473;51.552;6.716;2023-06-14T03:00:33;16.70;1.00
12817;DHT22;6473;51.552;6.716;2023-06-14T03:03:01;16.70;1.00
12817;DHT22;6473;51.552;6.716;2023-06-14T03:05:31;17.30;1.00
12817;DHT22;6473;51.552;6.716;2023-06-14T03:07:59;16.70;1.00
12817;DHT22;6473;51.552;6.716;2023-06-14T03:10:26;16.70;1.00
12817;DHT22;6473;51.552;6.716;2023-06-14T03:12:55;16.60;1.00
12817;DHT22;6473;51.552;6.716;2023-06-14T03:15:21;16.60;1.00
12817;DHT22;6473;51.552;6.716;2023-06-14T03:17:50;16.60;1.00
12817;DHT22;6473;51.552;6.716;2023-06-14T03:20:20;16.50;1.00
12817;DHT22;6473;51.552;6.716;2023-06-14T03:22:48;16.50;1.00
12817;DHT22;6473;51.552;6.716;2023-06-14T03:25:16;16.40;1.00
12817;DHT22;6473;51.552;6.716;2023-06-14T03:27:46;16.50;1.00
12817;DHT22;6473;51.552;6.716;2023-06-14T03:30:14;16.50;1.00
12817;DHT22;6473;51.552;6.716;2023-06-14T03:32:43;16.40;1.00
12817;DHT22;6473;51.552;6.716;2023-06-14T03:35:10;16.50;1.00
12817;DHT22;6473;51.552;6.716;2023-06-14T03:37:43;16.50;1.00
12817;DHT22;6473;51.552;6.716;2023-06-14T03:40:13;16.40;1.00
12817;DHT22;6473;51.552;6.716;2023-06-14T03:42:42;16.40;1.00
12817;DHT22;6473;51.552;6.716;2023-06-14T03:45:09;16.40;1.00
12817;DHT22;6473;51.552;6.716;2023-06-14T03:47:36;16.50;1.00
12817;DHT22;6473;51.552;6.716;2023-06-14T03:50:04;16.50;1.00
12817;DHT22;6473;51.552;6.716;2023-06-14T03:52:32;16.50;1.00
12817;DHT22;6473;51.552;6.716;2023-06-14T03:54:59;16.40;1.00
12817;DHT22;6473;51.552;6.716;2023-06-14T03:57:29;16.30;1.00
12817;DHT22;6473;51.552;6.716;2023-06-14T03:59:57;16.30;1.00
12817;DHT22;6473;51.552;6.716;2023-06-14T04:02:25;16.20;1.00
12817;DHT22;6473;51.552;6.716;2023-06-14T04:04:54;16.30;1.00
12817;DHT22;6473;51.552;6.716;2023-06-14T04:07:22;16.30;1.00
12817;DHT22;6473;51.552;6.716;2023-06-14T04:09:52;16.30;1.00
12817;DHT22;6473;51.552;6.716;2023-06-14T04:12:19;16.20;1.00
12817;DHT22;6473;51.552;6.716;2023-06-14T04:14:47;16.30;1.00
12817;DHT22;6473;51.552;6.716;2023-06-14T04:17:14;16.20;1.00
12817;DHT22;6473;51.552;6.716;2023-06-14T04:19:44;16.20;1.00
12817;DHT22;6473;51.552;6.716;2023-06-14T04:22:11;16.20;1.00
12817;DHT22;6473;51.552;6.716;2023-06-14T04:24:38;16.20;1.00
12817;DHT22;6473;51.552;6.716;2023-06-14T04:27:08;16.20;1.00
12817;DHT22;6473;51.552;6.716;2023-06-14T04:29:36;16.30;1.00
12817;DHT22;6473;51.552;6.716;2023-06-14T04:32:09;16.40;1.00
12817;DHT22;6473;51.552;6.716;2023-06-14T04:34:39;16.40;1.00
12817;DHT22;6473;51.552;6.716;2023-06-14T04:37:07;16.50;1.00
12817;DHT22;6473;51.552;6.716;2023-06-14T04:39:37;16.50;1.00
12817;DHT22;6473;51.552;6.716;2023-06-14T04:42:05;16.70;1.00
12817;DHT22;6473;51.552;6.716;2023-06-14T04:44:33;16.60;1.00
12817;DHT22;6473;51.552;6.716;2023-06-14T04:47:03;16.70;1.00
12817;DHT22;6473;51.552;6.716;2023-06-14T04:49:31;16.70;1.00
12817;DHT22;6473;51.552;6.716;2023-06-14T04:52:00;16.70;1.00
12817;DHT22;6473;51.552;6.716;2023-06-14T04:54:33;16.70;1.00
12817;DHT22;6473;51.552;6.716;2023-06-14T04:57:04;16.80;1.00
12817;DHT22;6473;51.552;6.716;2023-06-14T04:59:31;16.80;1.00
12817;DHT22;6473;51.552;6.716;2023-06-14T05:01:59;16.80;1.00
12817;DHT22;6473;51.552;6.716;2023-06-14T05:04:26;16.90;1.00
12817;DHT22;6473;51.552;6.716;2023-06-14T05:06:57;16.90;1.00
12817;DHT22;6473;51.552;6.716;2023-06-14T05:09:24;17.00;1.00
12817;DHT22;6473;51.552;6.716;2023-06-14T05:11:51;17.10;1.00
12817;DHT22;6473;51.552;6.716;2023-06-14T05:14:20;17.10;1.00
12817;DHT22;6473;51.552;6.716;2023-06-14T05:16:49;17.10;1.00
12817;DHT22;6473;51.552;6.716;2023-06-14T05:19:16;17.20;1.00
12817;DHT22;6473;51.552;6.716;2023-06-14T05:21:43;17.20;1.00
12817;DHT22;6473;51.552;6.716;2023-06-14T05:24:11;17.30;1.00
12817;DHT22;6473;51.552;6.716;2023-06-14T05:26:38;17.40;1.00
12817;DHT22;6473;51.552;6.716;2023-06-14T05:29:05;17.50;1.00
12817;DHT22;6473;51.552;6.716;2023-06-14T05:31:32;17.50;1.00
12817;DHT22;6473;51.552;6.716;2023-06-14T05:33:59;17.60;1.00
12817;DHT22;6473;51.552;6.716;2023-06-14T05:36:26;17.80;1.00
12817;DHT22;6473;51.552;6.716;2023-06-14T05:38:53;17.90;1.00
12817;DHT22;6473;51.552;6.716;2023-06-14T05:41:24;18.10;1.00
12817;DHT22;6473;51.552;6.716;2023-06-14T05:43:51;18.40;1.00
12817;DHT22;6473;51.552;6.716;2023-06-14T05:46:18;19.00;1.00
12817;DHT22;6473;51.552;6.716;2023-06-14T05:48:48;19.40;1.00
12817;DHT22;6473;51.552;6.716;2023-06-14T05:51:15;20.00;1.00
12817;DHT22;6473;51.552;6.716;2023-06-14T05:53:44;20.40;1.00
12817;DHT22;6473;51.552;6.716;2023-06-14T05:56:11;21.20;1.00
12817;DHT22;6473;51.552;6.716;2023-06-14T05:58:40;21.70;1.00
12817;DHT22;6473;51.552;6.716;2023-06-14T06:01:07;22.20;1.00
12817;DHT22;6473;51.552;6.716;2023-06-14T06:03:34;22.70;1.00
12817;DHT22;6473;51.552;6.716;2023-06-14T06:06:00;23.10;1.00
12817;DHT22;6473;51.552;6.716;2023-06-14T06:08:28;23.80;1.00
12817;DHT22;6473;51.552;6.716;2023-06-14T06:10:55;24.00;1.00
12817;DHT22;6473;51.552;6.716;2023-06-14T06:13:22;23.80;1.00
12817;DHT22;6473;51.552;6.716;2023-06-14T06:15:50;24.10;1.00
12817;DHT22;6473;51.552;6.716;2023-06-14T06:18:17;23.20;1.00
12817;DHT22;6473;51.552;6.716;2023-06-14T06:20:44;24.10;1.00
12817;DHT22;6473;51.552;6.716;2023-06-14T06:23:12;24.30;1.00
12817;DHT22;6473;51.552;6.716;2023-06-14T06:25:39;24.10;1.00
12817;DHT22;6473;51.552;6.716;2023-06-14T06:28:06;23.90;1.00
12817;DHT22;6473;51.552;6.716;2023-06-14T06:30:33;24.50;1.00
12817;DHT22;6473;51.552;6.716;2023-06-14T06:33:03;24.40;1.00
12817;DHT22;6473;51.552;6.716;2023-06-14T06:35:30;24.60;1.00
12817;DHT22;6473;51.552;6.716;2023-06-14T06:37:59;24.60;1.00
12817;DHT22;6473;51.552;6.716;2023-06-14T06:40:26;24.70;1.00
12817;DHT22;6473;51.552;6.716;2023-06-14T06:42:53;25.40;1.00
12817;DHT22;6473;51.552;6.716;2023-06-14T06:45:20;25.20;1.00
12817;DHT22;6473;51.552;6.716;2023-06-14T06:47:48;24.70;1.00
12817;DHT22;6473;51.552;6.716;2023-06-14T06:50:18;24.60;1.00
12817;DHT22;6473;51.552;6.716;2023-06-14T06:52:45;24.50;1.00
12817;DHT22;6473;51.552;6.716;2023-06-14T06:55:12;24.50;1.00
12817;DHT22;6473;51.552;6.716;2023-06-14T06:57:39;25.00;1.00
12817;DHT22;6473;51.552;6.716;2023-06-14T07:00:07;24.60;1.00
12817;DHT22;6473;51.552;6.716;2023-06-14T07:02:35;24.80;1.00
12817;DHT22;6473;51.552;6.716;2023-06-14T07:05:02;25.20;1.00
12817;DHT22;6473;51.552;6.716;2023-06-14T07:07:31;25.70;1.00
12817;DHT22;6473;51.552;6.716;2023-06-14T07:09:58;25.60;1.00
12817;DHT22;6473;51.552;6.716;2023-06-14T07:12:26;25.80;1.00
12817;DHT22;6473;51.552;6.716;2023-06-14T07:14:52;25.60;1.00
12817;DHT22;6473;51.552;6.716;2023-06-14T07:17:19;25.20;1.00
12817;DHT22;6473;51.552;6.716;2023-06-14T07:19:46;25.40;1.00
12817;DHT22;6473;51.552;6.716;2023-06-14T07:22:16;24.70;1.00
12817;DHT22;6473;51.552;6.716;2023-06-14T07:24:45;25.20;1.00
12817;DHT22;6473;51.552;6.716;2023-06-14T07:27:12;25.80;1.00
12817;DHT22;6473;51.552;6.716;2023-06-14T07:29:39;26.30;1.00
12817;DHT22;6473;51.552;6.716;2023-06-14T07:32:07;26.50;1.00
12817;DHT22;6473;51.552;6.716;2023-06-14T07:34:34;26.90;1.00
12817;DHT22;6473;51.552;6.716;2023-06-14T07:37:03;27.40;1.00
12817;DHT22;6473;51.552;6.716;2023-06-14T07:39:30;26.90;1.00
12817;DHT22;6473;51.552;6.716;2023-06-14T07:41:58;27.10;1.00
12817;DHT22;6473;51.552;6.716;2023-06-14T07:44:29;27.60;1.00
12817;DHT22;6473;51.552;6.716;2023-06-14T07:46:56;27.70;1.00
12817;DHT22;6473;51.552;6.716;2023-06-14T07:49:25;27.70;1.00
12817;DHT22;6473;51.552;6.716;2023-06-14T07:51:52;27.10;1.00
12817;DHT22;6473;51.552;6.716;2023-06-14T07:54:19;26.50;1.00
12817;DHT22;6473;51.552;6.716;2023-06-14T07:56:50;26.60;1.00
12817;DHT22;6473;51.552;6.716;2023-06-14T07:59:20;26.70;1.00
12817;DHT22;6473;51.552;6.716;2023-06-14T08:01:47;27.00;1.00
12817;DHT22;6473;51.552;6.716;2023-06-14T08:04:14;27.20;1.00
12817;DHT22;6473;51.552;6.716;2023-06-14T08:06:41;27.40;1.00
12817;DHT22;6473;51.552;6.716;2023-06-14T08:09:09;27.10;1.00
12817;DHT22;6473;51.552;6.716;2023-06-14T08:11:37;26.90;1.00
12817;DHT22;6473;51.552;6.716;2023-06-14T08:14:04;27.20;1.00
12817;DHT22;6473;51.552;6.716;2023-06-14T08:16:33;27.90;1.00
12817;DHT22;6473;51.552;6.716;2023-06-14T08:19:00;28.20;1.00
12817;DHT22;6473;51.552;6.716;2023-06-14T08:21:27;28.60;1.00
12817;DHT22;6473;51.552;6.716;2023-06-14T08:23:55;28.50;1.00
12817;DHT22;6473;51.552;6.716;2023-06-14T08:26:25;28.50;1.00
12817;DHT22;6473;51.552;6.716;2023-06-14T08:28:54;28.70;1.00
12817;DHT22;6473;51.552;6.716;2023-06-14T08:31:21;28.70;1.00
12817;DHT22;6473;51.552;6.716;2023-06-14T08:33:50;27.60;1.00
12817;DHT22;6473;51.552;6.716;2023-06-14T08:36:20;27.50;1.00
12817;DHT22;6473;51.552;6.716;2023-06-14T08:38:48;27.50;1.00
12817;DHT22;6473;51.552;6.716;2023-06-14T08:41:21;27.80;1.00
12817;DHT22;6473;51.552;6.716;2023-06-14T08:43:53;28.30;1.00
12817;DHT22;6473;51.552;6.716;2023-06-14T08:46:26;28.20;1.00
12817;DHT22;6473;51.552;6.716;2023-06-14T08:48:56;28.30;1.00
12817;DHT22;6473;51.552;6.716;2023-06-14T08:51:25;28.70;1.00
12817;DHT22;6473;51.552;6.716;2023-06-14T08:53:59;29.10;1.00
12817;DHT22;6473;51.552;6.716;2023-06-14T08:56:28;29.20;1.00
12817;DHT22;6473;51.552;6.716;2023-06-14T08:58:56;29.20;1.00
12817;DHT22;6473;51.552;6.716;2023-06-14T09:01:26;29.20;1.00
12817;DHT22;6473;51.552;6.716;2023-06-14T09:03:53;28.90;1.00
12817;DHT22;6473;51.552;6.716;2023-06-14T09:06:24;28.70;1.00
12817;DHT22;6473;51.552;6.716;2023-06-14T09:08:51;28.70;1.00
12817;DHT22;6473;51.552;6.716;2023-06-14T09:11:19;28.70;1.00
12817;DHT22;6473;51.552;6.716;2023-06-14T09:13:46;28.40;1.00
12817;DHT22;6473;51.552;6.716;2023-06-14T09:16:13;27.90;1.00
12817;DHT22;6473;51.552;6.716;2023-06-14T09:18:42;28.00;1.00
12817;DHT22;6473;51.552;6.716;2023-06-14T09:21:11;28.00;1.00
12817;DHT22;6473;51.552;6.716;2023-06-14T09:23:40;27.90;1.00
12817;DHT22;6473;51.552;6.716;2023-06-14T09:26:08;28.30;1.00
12817;DHT22;6473;51.552;6.716;2023-06-14T09:28:41;28.20;1.00
12817;DHT22;6473;51.552;6.716;2023-06-14T09:31:11;28.20;1.00
12817;DHT22;6473;51.552;6.716;2023-06-14T09:33:37;28.30;1.00
12817;DHT22;6473;51.552;6.716;2023-06-14T09:36:05;28.10;1.00
12817;DHT22;6473;51.552;6.716;2023-06-14T09:38:36;28.20;1.00
12817;DHT22;6473;51.552;6.716;2023-06-14T09:41:04;28.60;1.00
12817;DHT22;6473;51.552;6.716;2023-06-14T09:43:33;29.10;1.00
12817;DHT22;6473;51.552;6.716;2023-06-14T09:46:00;28.90;1.00
12817;DHT22;6473;51.552;6.716;2023-06-14T09:48:27;28.90;1.00
12817;DHT22;6473;51.552;6.716;2023-06-14T09:50:55;29.40;1.00
12817;DHT22;6473;51.552;6.716;2023-06-14T09:53:24;29.10;1.00
12817;DHT22;6473;51.552;6.716;2023-06-14T09:55:52;28.70;1.00
12817;DHT22;6473;51.552;6.716;2023-06-14T09:58:23;28.70;1.00
12817;DHT22;6473;51.552;6.716;2023-06-14T10:00:53;28.20;1.00
12817;DHT22;6473;51.552;6.716;2023-06-14T10:03:24;28.10;1.00
12817;DHT22;6473;51.552;6.716;2023-06-14T10:05:52;28.30;1.00
12817;DHT22;6473;51.552;6.716;2023-06-14T10:08:24;28.70;1.00
12817;DHT22;6473;51.552;6.716;2023-06-14T10:10:53;28.80;1.00
12817;DHT22;6473;51.552;6.716;2023-06-14T10:13:23;29.00;1.00
12817;DHT22;6473;51.552;6.716;2023-06-14T10:15:57;29.10;1.00
12817;DHT22;6473;51.552;6.716;2023-06-14T10:18:33;29.10;1.00
12817;DHT22;6473;51.552;6.716;2023-06-14T10:21:08;29.50;1.00
12817;DHT22;6473;51.552;6.716;2023-06-14T10:23:41;29.20;1.00
12817;DHT22;6473;51.552;6.716;2023-06-14T10:26:18;28.40;1.00
12817;DHT22;6473;51.552;6.716;2023-06-14T10:28:57;27.70;1.00
12817;DHT22;6473;51.552;6.716;2023-06-14T10:31:43;27.90;1.00
12817;DHT22;6473;51.552;6.716;2023-06-14T10:34:12;27.20;1.00
12817;DHT22;6473;51.552;6.716;2023-06-14T10:37:00;27.20;1.00
12817;DHT22;6473;51.552;6.716;2023-06-14T10:39:28;26.80;1.00
12817;DHT22;6473;51.552;6.716;2023-06-14T10:41:56;26.70;1.00
12817;DHT22;6473;51.552;6.716;2023-06-14T10:44:41;26.40;1.00
12817;DHT22;6473;51.552;6.716;2023-06-14T10:47:10;26.40;1.00
12817;DHT22;6473;51.552;6.716;2023-06-14T10:49:43;27.50;1.00
12817;DHT22;6473;51.552;6.716;2023-06-14T10:52:12;27.90;1.00
12817;DHT22;6473;51.552;6.716;2023-06-14T10:55:07;28.10;1.00
12817;DHT22;6473;51.552;6.716;2023-06-14T10:57:42;28.90;1.00
12817;DHT22;6473;51.552;6.716;2023-06-14T11:00:13;28.50;1.00
12817;DHT22;6473;51.552;6.716;2023-06-14T11:02:54;28.20;1.00
12817;DHT22;6473;51.552;6.716;2023-06-14T11:05:28;28.00;1.00
12817;DHT22;6473;51.552;6.716;2023-06-14T11:10:57;27.50;1.00
12817;DHT22;6473;51.552;6.716;2023-06-14T11:13:25;26.90;1.00
12817;DHT22;6473;51.552;6.716;2023-06-14T11:15:54;26.80;1.00
12817;DHT22;6473;51.552;6.716;2023-06-14T11:18:23;26.70;1.00
12817;DHT22;6473;51.552;6.716;2023-06-14T11:20:53;26.90;1.00
12817;DHT22;6473;51.552;6.716;2023-06-14T11:23:21;26.50;1.00
12817;DHT22;6473;51.552;6.716;2023-06-14T11:25:50;27.10;1.00
12817;DHT22;6473;51.552;6.716;2023-06-14T11:28:17;26.60;1.00
12817;DHT22;6473;51.552;6.716;2023-06-14T11:30:47;26.90;1.00
12817;DHT22;6473;51.552;6.716;2023-06-14T11:33:18;26.10;1.00
12817;DHT22;6473;51.552;6.716;2023-06-14T11:35:45;26.50;1.00
12817;DHT22;6473;51.552;6.716;2023-06-14T11:38:12;26.60;1.00
12817;DHT22;6473;51.552;6.716;2023-06-14T11:40:39;26.50;1.00
12817;DHT22;6473;51.552;6.716;2023-06-14T11:43:06;29.30;1.00
12817;DHT22;6473;51.552;6.716;2023-06-14T11:45:34;26.10;1.00
12817;DHT22;6473;51.552;6.716;2023-06-14T11:48:04;26.10;1.00
12817;DHT22;6473;51.552;6.716;2023-06-14T11:50:37;25.60;1.00
12817;DHT22;6473;51.552;6.716;2023-06-14T11:53:06;25.70;1.00
12817;DHT22;6473;51.552;6.716;2023-06-14T11:58:29;25.40;1.00
12817;DHT22;6473;51.552;6.716;2023-06-14T12:01:04;25.90;1.00
12817;DHT22;6473;51.552;6.716;2023-06-14T12:03:34;26.20;1.00
12817;DHT22;6473;51.552;6.716;2023-06-14T12:06:04;26.20;1.00
12817;DHT22;6473;51.552;6.716;2023-06-14T12:08:34;26.40;1.00
12817;DHT22;6473;51.552;6.716;2023-06-14T12:11:14;26.20;1.00
12817;DHT22;6473;51.552;6.716;2023-06-14T12:13:56;26.50;1.00
12817;DHT22;6473;51.552;6.716;2023-06-14T12:16:47;26.50;1.00
12817;DHT22;6473;51.552;6.716;2023-06-14T12:22:29;26.60;1.00
12817;DHT22;6473;51.552;6.716;2023-06-14T12:25:00;25.90;1.00
12817;DHT22;6473;51.552;6.716;2023-06-14T12:27:28;26.80;1.00
12817;DHT22;6473;51.552;6.716;2023-06-14T12:29:59;25.70;1.00
12817;DHT22;6473;51.552;6.716;2023-06-14T12:32:27;26.30;1.00
12817;DHT22;6473;51.552;6.716;2023-06-14T12:34:58;26.40;1.00
12817;DHT22;6473;51.552;6.716;2023-06-14T12:37:27;26.40;1.00
12817;DHT22;6473;51.552;6.716;2023-06-14T12:39:57;26.70;1.00
12817;DHT22;6473;51.552;6.716;2023-06-14T12:42:25;26.60;1.00
12817;DHT22;6473;51.552;6.716;2023-06-14T12:44:52;26.30;1.00
12817;DHT22;6473;51.552;6.716;2023-06-14T12:47:19;26.80;1.00
12817;DHT22;6473;51.552;6.716;2023-06-14T12:49:46;27.90;1.00
12817;DHT22;6473;51.552;6.716;2023-06-14T12:52:15;26.10;1.00
12817;DHT22;6473;51.552;6.716;2023-06-14T12:54:48;25.70;1.00
12817;DHT22;6473;51.552;6.716;2023-06-14T12:57:27;25.50;1.00
12817;DHT22;6473;51.552;6.716;2023-06-14T13:00:10;25.90;1.00
12817;DHT22;6473;51.552;6.716;2023-06-14T13:02:38;25.90;1.00
12817;DHT22;6473;51.552;6.716;2023-06-14T13:05:06;26.30;1.00
12817;DHT22;6473;51.552;6.716;2023-06-14T13:08:04;26.50;1.00
12817;DHT22;6473;51.552;6.716;2023-06-14T13:10:35;26.70;1.00
12817;DHT22;6473;51.552;6.716;2023-06-14T13:13:11;26.80;1.00
12817;DHT22;6473;51.552;6.716;2023-06-14T13:15:41;27.10;1.00
12817;DHT22;6473;51.552;6.716;2023-06-14T13:18:08;27.10;1.00
12817;DHT22;6473;51.552;6.716;2023-06-14T13:20:41;26.70;1.00
12817;DHT22;6473;51.552;6.716;2023-06-14T13:23:11;26.50;1.00
12817;DHT22;6473;51.552;6.716;2023-06-14T13:25:54;26.00;1.00
12817;DHT22;6473;51.552;6.716;2023-06-14T13:28:32;25.70;1.00
12817;DHT22;6473;51.552;6.716;2023-06-14T13:31:29;25.20;1.00
12817;DHT22;6473;51.552;6.716;2023-06-14T13:33:59;25.20;1.00
12817;DHT22;6473;51.552;6.716;2023-06-14T13:36:34;25.50;1.00
12817;DHT22;6473;51.552;6.716;2023-06-14T13:39:06;26.10;1.00
12817;DHT22;6473;51.552;6.716;2023-06-14T13:41:35;25.80;1.00
12817;DHT22;6473;51.552;6.716;2023-06-14T13:44:05;25.40;1.00
12817;DHT22;6473;51.552;6.716;2023-06-14T13:46:40;25.60;1.00
12817;DHT22;6473;51.552;6.716;2023-06-14T13:49:10;25.50;1.00
12817;DHT22;6473;51.552;6.716;2023-06-14T13:51:46;25.30;1.00
12817;DHT22;6473;51.552;6.716;2023-06-14T13:54:14;25.40;1.00
12817;DHT22;6473;51.552;6.716;2023-06-14T13:56:43;25.40;1.00
12817;DHT22;6473;51.552;6.716;2023-06-14T13:59:12;25.90;1.00
12817;DHT22;6473;51.552;6.716;2023-06-14T14:01:43;26.50;1.00
12817;DHT22;6473;51.552;6.716;2023-06-14T14:04:13;26.30;1.00
12817;DHT22;6473;51.552;6.716;2023-06-14T14:06:43;25.90;1.00
12817;DHT22;6473;51.552;6.716;2023-06-14T14:09:11;25.60;1.00
12817;DHT22;6473;51.552;6.716;2023-06-14T14:11:44;25.70;1.00
12817;DHT22;6473;51.552;6.716;2023-06-14T14:14:16;25.80;1.00
12817;DHT22;6473;51.552;6.716;2023-06-14T14:16:43;25.60;1.00
12817;DHT22;6473;51.552;6.716;2023-06-14T14:19:12;24.70;1.00
12817;DHT22;6473;51.552;6.716;2023-06-14T14:21:40;25.10;1.00
12817;DHT22;6473;51.552;6.716;2023-06-14T14:24:09;24.90;1.00
12817;DHT22;6473;51.552;6.716;2023-06-14T14:26:36;25.30;1.00
12817;DHT22;6473;51.552;6.716;2023-06-14T14:31:47;25.90;1.00
12817;DHT22;6473;51.552;6.716;2023-06-14T14:34:19;26.00;1.00
12817;DHT22;6473;51.552;6.716;2023-06-14T14:36:46;26.00;1.00
12817;DHT22;6473;51.552;6.716;2023-06-14T14:39:34;26.10;1.00
12817;DHT22;6473;51.552;6.716;2023-06-14T14:42:02;25.90;1.00
12817;DHT22;6473;51.552;6.716;2023-06-14T14:44:46;26.20;1.00
12817;DHT22;6473;51.552;6.716;2023-06-14T14:47:18;25.70;1.00
12817;DHT22;6473;51.552;6.716;2023-06-14T14:49:49;25.40;1.00
12817;DHT22;6473;51.552;6.716;2023-06-14T14:52:17;25.40;1.00
12817;DHT22;6473;51.552;6.716;2023-06-14T14:54:54;25.40;1.00
12817;DHT22;6473;51.552;6.716;2023-06-14T14:57:21;25.70;1.00
12817;DHT22;6473;51.552;6.716;2023-06-14T14:59:49;26.70;1.00
12817;DHT22;6473;51.552;6.716;2023-06-14T15:02:17;25.20;1.00
12817;DHT22;6473;51.552;6.716;2023-06-14T15:04:45;25.00;1.00
12817;DHT22;6473;51.552;6.716;2023-06-14T15:07:19;25.10;1.00
12817;DHT22;6473;51.552;6.716;2023-06-14T15:09:47;24.90;1.00
12817;DHT22;6473;51.552;6.716;2023-06-14T15:12:16;24.90;1.00
12817;DHT22;6473;51.552;6.716;2023-06-14T15:14:43;24.90;1.00
12817;DHT22;6473;51.552;6.716;2023-06-14T15:17:22;25.40;1.00
12817;DHT22;6473;51.552;6.716;2023-06-14T15:19:51;25.50;1.00
12817;DHT22;6473;51.552;6.716;2023-06-14T15:22:18;25.60;1.00
12817;DHT22;6473;51.552;6.716;2023-06-14T15:24:45;25.40;1.00
12817;DHT22;6473;51.552;6.716;2023-06-14T15:27:12;25.40;1.00
12817;DHT22;6473;51.552;6.716;2023-06-14T15:29:40;25.30;1.00
12817;DHT22;6473;51.552;6.716;2023-06-14T15:32:08;25.20;1.00
12817;DHT22;6473;51.552;6.716;2023-06-14T15:34:37;25.30;1.00
12817;DHT22;6473;51.552;6.716;2023-06-14T15:37:05;25.50;1.00
12817;DHT22;6473;51.552;6.716;2023-06-14T15:39:33;25.60;1.00
12817;DHT22;6473;51.552;6.716;2023-06-14T15:42:00;25.90;1.00
12817;DHT22;6473;51.552;6.716;2023-06-14T15:44:28;25.50;1.00
12817;DHT22;6473;51.552;6.716;2023-06-14T15:46:55;25.60;1.00
12817;DHT22;6473;51.552;6.716;2023-06-14T15:49:23;25.60;1.00
12817;DHT22;6473;51.552;6.716;2023-06-14T15:51:51;25.90;1.00
12817;DHT22;6473;51.552;6.716;2023-06-14T15:54:19;24.90;1.00
12817;DHT22;6473;51.552;6.716;2023-06-14T15:56:46;25.30;1.00
12817;DHT22;6473;51.552;6.716;2023-06-14T15:59:13;24.60;1.00
12817;DHT22;6473;51.552;6.716;2023-06-14T16:01:41;24.70;1.00
12817;DHT22;6473;51.552;6.716;2023-06-14T16:04:08;24.90;1.00
12817;DHT22;6473;51.552;6.716;2023-06-14T16:06:40;25.00;1.00
12817;DHT22;6473;51.552;6.716;2023-06-14T16:09:08;24.80;1.00
12817;DHT22;6473;51.552;6.716;2023-06-14T16:11:35;25.30;1.00
12817;DHT22;6473;51.552;6.716;2023-06-14T16:14:02;24.60;1.00
12817;DHT22;6473;51.552;6.716;2023-06-14T16:16:29;24.80;1.00
12817;DHT22;6473;51.552;6.716;2023-06-14T16:18:56;24.90;1.00
12817;DHT22;6473;51.552;6.716;2023-06-14T16:21:28;24.90;1.00
12817;DHT22;6473;51.552;6.716;2023-06-14T16:23:55;24.90;1.00
12817;DHT22;6473;51.552;6.716;2023-06-14T16:26:23;24.70;1.00
12817;DHT22;6473;51.552;6.716;2023-06-14T16:28:54;24.80;1.00
12817;DHT22;6473;51.552;6.716;2023-06-14T16:31:24;24.70;1.00
12817;DHT22;6473;51.552;6.716;2023-06-14T16:33:51;24.80;1.00
12817;DHT22;6473;51.552;6.716;2023-06-14T16:36:23;24.80;1.00
12817;DHT22;6473;51.552;6.716;2023-06-14T16:38:54;24.90;1.00
12817;DHT22;6473;51.552;6.716;2023-06-14T16:41:22;25.10;1.00
12817;DHT22;6473;51.552;6.716;2023-06-14T16:43:52;25.00;1.00
12817;DHT22;6473;51.552;6.716;2023-06-14T16:46:27;24.90;1.00
12817;DHT22;6473;51.552;6.716;2023-06-14T16:48:55;24.50;1.00
12817;DHT22;6473;51.552;6.716;2023-06-14T16:51:22;24.70;1.00
12817;DHT22;6473;51.552;6.716;2023-06-14T16:53:49;25.30;1.00